PWSweather.com
Personal Weather Stations
Station Observations
WOODBURYWX
Lighthouse Rd, Woodbury, Woodbury, CT 06798

Lighthouse Rd, WoodburyWoodbury, CT 06798

Lat: 41.553333, Lon: -73.224167

Elevation: 437

Station Type: Ambient Weather WS-1090

Latest ConditionsUpdated 5:56:00 AM EDT Friday, Sep 30, 2016
Currently Today's Max Today's Min Today's Average
Temperature 53.6°F12.0°C 54.0°F12.2°C 53.4°F11.9°C 53.7°F12.1°C
Dew Point 47.6°F8.7°C 48.6°F9.2°C 47.2°F8.4°C 47.9°F8.8°C
Winds 5.4 mph N8.7 kmh N 5.6 mph N9.0 kmh N - 4.4 mph 7.1 kmh
Wind Gusts 7.9 mph12.7 kmh 10.5 mph16.9 kmh - -
Humidity 80% 83% 79% 81%
Pressure 30.58 in1035.6 mb 30.59 in1035.9 mb 30.55 in1034.5 mb -
Hour Temp Dew Point Humidity Winds Wind Gusts Pressure Precip Precip Rate Daily Precip Total
05:56 AM 53.6°F12.0°C 47.6°F8.7°C 80% 5.4 mph N8.7 kmh N 7.9 mph12.7 kmh 30.58 in1035.6 mb 0.00 in0.0 mm 0.00 in0.0 mm 0.00 in0.0 mm
05:55 AM 53.6°F12.0°C 47.6°F8.7°C 80% 5.3 mph N8.5 kmh N 7.9 mph12.7 kmh 30.57 in1035.2 mb 0.00 in0.0 mm 0.00 in0.0 mm 0.00 in0.0 mm
05:54 AM 53.8°F12.1°C 47.8°F8.8°C 80% 4.9 mph N7.9 kmh N 7.9 mph12.7 kmh 30.58 in1035.6 mb 0.00 in0.0 mm 0.00 in0.0 mm 0.00 in0.0 mm
05:53 AM 53.8°F12.1°C 47.8°F8.8°C 80% 4.9 mph N7.9 kmh N 7.0 mph11.3 kmh 30.58 in1035.6 mb 0.00 in0.0 mm 0.00 in0.0 mm 0.00 in0.0 mm
05:52 AM 53.8°F12.1°C 47.8°F8.8°C 80% 5.1 mph N8.2 kmh N 7.0 mph11.3 kmh 30.58 in1035.6 mb 0.00 in0.0 mm 0.00 in0.0 mm 0.00 in0.0 mm
05:51 AM 53.6°F12.0°C 47.6°F8.7°C 80% 5.3 mph N8.5 kmh N 7.0 mph11.3 kmh 30.58 in1035.6 mb 0.00 in0.0 mm 0.00 in0.0 mm 0.00 in0.0 mm
05:50 AM 53.6°F12.0°C 47.6°F8.7°C 80% 5.5 mph N8.9 kmh N 7.0 mph11.3 kmh 30.58 in1035.6 mb 0.00 in0.0 mm 0.00 in0.0 mm 0.00 in0.0 mm
05:49 AM 53.8°F12.1°C 47.8°F8.8°C 80% 5.5 mph N8.9 kmh N 7.0 mph11.3 kmh 30.58 in1035.6 mb 0.00 in0.0 mm 0.00 in0.0 mm 0.00 in0.0 mm
05:48 AM 53.8°F12.1°C 47.8°F8.8°C 80% 5.5 mph N8.9 kmh N 7.0 mph11.3 kmh 30.58 in1035.6 mb 0.00 in0.0 mm 0.00 in0.0 mm 0.00 in0.0 mm
05:47 AM 53.8°F12.1°C 47.8°F8.8°C 80% 5.6 mph N9.0 kmh N 7.0 mph11.3 kmh 30.58 in1035.6 mb 0.00 in0.0 mm 0.00 in0.0 mm 0.00 in0.0 mm
05:46 AM 53.8°F12.1°C 47.8°F8.8°C 80% 5.6 mph N9.0 kmh N 7.0 mph11.3 kmh 30.58 in1035.6 mb 0.00 in0.0 mm 0.00 in0.0 mm 0.00 in0.0 mm
05:45 AM 53.8°F12.1°C 47.8°F8.8°C 80% 5.5 mph N8.9 kmh N 7.0 mph11.3 kmh 30.58 in1035.6 mb 0.00 in0.0 mm 0.00 in0.0 mm 0.00 in0.0 mm
05:44 AM 53.8°F12.1°C 47.8°F8.8°C 80% 5.5 mph N8.9 kmh N 7.0 mph11.3 kmh 30.58 in1035.6 mb 0.00 in0.0 mm 0.00 in0.0 mm 0.00 in0.0 mm
05:43 AM 53.8°F12.1°C 47.8°F8.8°C 80% 5.3 mph N8.5 kmh N 7.0 mph11.3 kmh 30.58 in1035.6 mb 0.00 in0.0 mm 0.00 in0.0 mm 0.00 in0.0 mm
05:42 AM 53.8°F12.1°C 47.8°F8.8°C 80% 4.9 mph N7.9 kmh N 7.0 mph11.3 kmh 30.58 in1035.6 mb 0.00 in0.0 mm 0.00 in0.0 mm 0.00 in0.0 mm
05:41 AM 53.8°F12.1°C 47.8°F8.8°C 80% 4.9 mph N7.9 kmh N 7.0 mph11.3 kmh 30.58 in1035.6 mb 0.00 in0.0 mm 0.00 in0.0 mm 0.00 in0.0 mm
05:40 AM 53.8°F12.1°C 47.8°F8.8°C 80% 4.9 mph N7.9 kmh N 7.0 mph11.3 kmh 30.58 in1035.6 mb 0.00 in0.0 mm 0.00 in0.0 mm 0.00 in0.0 mm
05:39 AM 53.8°F12.1°C 47.8°F8.8°C 80% 4.8 mph N7.7 kmh N 7.0 mph11.3 kmh 30.58 in1035.6 mb 0.00 in0.0 mm 0.00 in0.0 mm 0.00 in0.0 mm
05:38 AM 53.6°F12.0°C 47.6°F8.7°C 80% 4.6 mph N7.4 kmh N 7.0 mph11.3 kmh 30.58 in1035.6 mb 0.00 in0.0 mm 0.00 in0.0 mm 0.00 in0.0 mm
05:37 AM 53.8°F12.1°C 47.8°F8.8°C 80% 4.2 mph N6.8 kmh N 6.1 mph9.8 kmh 30.58 in1035.6 mb 0.00 in0.0 mm 0.00 in0.0 mm 0.00 in0.0 mm
05:36 AM 53.8°F12.1°C 47.8°F8.8°C 80% 4.2 mph N6.8 kmh N 6.1 mph9.8 kmh 30.58 in1035.6 mb 0.00 in0.0 mm 0.00 in0.0 mm 0.00 in0.0 mm
05:35 AM 53.8°F12.1°C 47.8°F8.8°C 80% 4.2 mph N6.8 kmh N 6.1 mph9.8 kmh 30.59 in1035.9 mb 0.00 in0.0 mm 0.00 in0.0 mm 0.00 in0.0 mm
05:34 AM 53.6°F12.0°C 47.6°F8.7°C 80% 4.2 mph N6.8 kmh N 6.1 mph9.8 kmh 30.58 in1035.6 mb 0.00 in0.0 mm 0.00 in0.0 mm 0.00 in0.0 mm
05:33 AM 53.8°F12.1°C 47.8°F8.8°C 80% 4.2 mph N6.8 kmh N 6.1 mph9.8 kmh 30.58 in1035.6 mb 0.00 in0.0 mm 0.00 in0.0 mm 0.00 in0.0 mm
05:32 AM 53.6°F12.0°C 47.6°F8.7°C 80% 4.2 mph N6.8 kmh N 6.1 mph9.8 kmh 30.58 in1035.6 mb 0.00 in0.0 mm 0.00 in0.0 mm 0.00 in0.0 mm
05:31 AM 53.6°F12.0°C 47.6°F8.7°C 80% 4.0 mph N6.4 kmh N 6.1 mph9.8 kmh 30.58 in1035.6 mb 0.00 in0.0 mm 0.00 in0.0 mm 0.00 in0.0 mm
05:30 AM 53.6°F12.0°C 47.6°F8.7°C 80% 3.7 mph N6.0 kmh N 6.1 mph9.8 kmh 30.58 in1035.6 mb 0.00 in0.0 mm 0.00 in0.0 mm 0.00 in0.0 mm
05:29 AM 53.6°F12.0°C 47.6°F8.7°C 80% 3.7 mph N6.0 kmh N 5.2 mph8.4 kmh 30.58 in1035.6 mb 0.00 in0.0 mm 0.00 in0.0 mm 0.00 in0.0 mm
05:28 AM 53.6°F12.0°C 47.6°F8.7°C 80% 3.8 mph N6.1 kmh N 5.2 mph8.4 kmh 30.58 in1035.6 mb 0.00 in0.0 mm 0.00 in0.0 mm 0.00 in0.0 mm
05:27 AM 53.6°F12.0°C 47.6°F8.7°C 80% 4.0 mph N6.4 kmh N 5.2 mph8.4 kmh 30.58 in1035.6 mb 0.00 in0.0 mm 0.00 in0.0 mm 0.00 in0.0 mm
05:26 AM 53.6°F12.0°C 47.6°F8.7°C 80% 4.0 mph N6.4 kmh N 5.2 mph8.4 kmh 30.58 in1035.6 mb 0.00 in0.0 mm 0.00 in0.0 mm 0.00 in0.0 mm
05:25 AM 53.6°F12.0°C 47.6°F8.7°C 80% 3.9 mph N6.3 kmh N 5.2 mph8.4 kmh 30.58 in1035.6 mb 0.00 in0.0 mm 0.00 in0.0 mm 0.00 in0.0 mm
05:24 AM 53.6°F12.0°C 47.9°F8.8°C 81% 4.1 mph N6.6 kmh N 5.2 mph8.4 kmh 30.58 in1035.6 mb 0.00 in0.0 mm 0.00 in0.0 mm 0.00 in0.0 mm
05:23 AM 53.6°F12.0°C 47.9°F8.8°C 81% 4.0 mph N6.4 kmh N 5.2 mph8.4 kmh 30.58 in1035.6 mb 0.00 in0.0 mm 0.00 in0.0 mm 0.00 in0.0 mm
05:22 AM 53.6°F12.0°C 47.6°F8.7°C 80% 4.0 mph N6.4 kmh N 5.2 mph8.4 kmh 30.58 in1035.6 mb 0.00 in0.0 mm 0.00 in0.0 mm 0.00 in0.0 mm
05:21 AM 53.6°F12.0°C 47.6°F8.7°C 80% 4.1 mph N6.6 kmh N 6.1 mph9.8 kmh 30.58 in1035.6 mb 0.00 in0.0 mm 0.00 in0.0 mm 0.00 in0.0 mm
05:20 AM 53.6°F12.0°C 47.6°F8.7°C 80% 4.3 mph N6.9 kmh N 6.1 mph9.8 kmh 30.58 in1035.6 mb 0.00 in0.0 mm 0.00 in0.0 mm 0.00 in0.0 mm
05:19 AM 53.6°F12.0°C 47.6°F8.7°C 80% 4.4 mph N7.1 kmh N 6.1 mph9.8 kmh 30.58 in1035.6 mb 0.00 in0.0 mm 0.00 in0.0 mm 0.00 in0.0 mm
05:18 AM 53.6°F12.0°C 47.6°F8.7°C 80% 4.3 mph N6.9 kmh N 6.1 mph9.8 kmh 30.58 in1035.6 mb 0.00 in0.0 mm 0.00 in0.0 mm 0.00 in0.0 mm
05:17 AM 53.6°F12.0°C 47.6°F8.7°C 80% 4.1 mph N6.6 kmh N 6.1 mph9.8 kmh 30.58 in1035.6 mb 0.00 in0.0 mm 0.00 in0.0 mm 0.00 in0.0 mm
05:16 AM 53.6°F12.0°C 47.6°F8.7°C 80% 4.1 mph N6.6 kmh N 6.1 mph9.8 kmh 30.59 in1035.9 mb 0.00 in0.0 mm 0.00 in0.0 mm 0.00 in0.0 mm
05:15 AM 53.6°F12.0°C 47.9°F8.8°C 81% 4.0 mph N6.4 kmh N 6.1 mph9.8 kmh 30.58 in1035.6 mb 0.00 in0.0 mm 0.00 in0.0 mm 0.00 in0.0 mm
05:14 AM 53.6°F12.0°C 47.6°F8.7°C 80% 3.9 mph N6.3 kmh N 6.1 mph9.8 kmh 30.58 in1035.6 mb 0.00 in0.0 mm 0.00 in0.0 mm 0.00 in0.0 mm
05:13 AM 53.6°F12.0°C 47.6°F8.7°C 80% 3.9 mph N6.3 kmh N 6.1 mph9.8 kmh 30.58 in1035.6 mb 0.00 in0.0 mm 0.00 in0.0 mm 0.00 in0.0 mm
05:12 AM 53.6°F12.0°C 47.9°F8.8°C 81% 3.9 mph N6.3 kmh N 6.1 mph9.8 kmh 30.58 in1035.6 mb 0.00 in0.0 mm 0.00 in0.0 mm 0.00 in0.0 mm
05:11 AM 53.4°F11.9°C 48.1°F8.9°C 82% 3.8 mph N6.1 kmh N 6.1 mph9.8 kmh 30.58 in1035.6 mb 0.00 in0.0 mm 0.00 in0.0 mm 0.00 in0.0 mm
05:10 AM 53.4°F11.9°C 48.1°F8.9°C 82% 3.8 mph N6.1 kmh N 5.2 mph8.4 kmh 30.58 in1035.6 mb 0.00 in0.0 mm 0.00 in0.0 mm 0.00 in0.0 mm
05:09 AM 53.4°F11.9°C 48.1°F8.9°C 82% 3.8 mph N6.1 kmh N 5.2 mph8.4 kmh 30.58 in1035.6 mb 0.00 in0.0 mm 0.00 in0.0 mm 0.00 in0.0 mm
05:08 AM 53.4°F11.9°C 47.7°F8.7°C 81% 3.8 mph N6.1 kmh N 5.2 mph8.4 kmh 30.58 in1035.6 mb 0.00 in0.0 mm 0.00 in0.0 mm 0.00 in0.0 mm
05:07 AM 53.4°F11.9°C 47.7°F8.7°C 81% 4.0 mph NNE6.4 kmh NNE 5.2 mph8.4 kmh 30.57 in1035.2 mb 0.00 in0.0 mm 0.00 in0.0 mm 0.00 in0.0 mm
05:06 AM 53.6°F12.0°C 47.6°F8.7°C 80% 4.1 mph NNE6.6 kmh NNE 5.2 mph8.4 kmh 30.58 in1035.6 mb 0.00 in0.0 mm 0.00 in0.0 mm 0.00 in0.0 mm
05:05 AM 53.6°F12.0°C 47.6°F8.7°C 80% 4.3 mph NNE6.9 kmh NNE 6.1 mph9.8 kmh 30.58 in1035.6 mb 0.00 in0.0 mm 0.00 in0.0 mm 0.00 in0.0 mm
05:04 AM 53.6°F12.0°C 47.6°F8.7°C 80% 4.5 mph NE7.2 kmh NE 6.1 mph9.8 kmh 30.58 in1035.6 mb 0.00 in0.0 mm 0.00 in0.0 mm 0.00 in0.0 mm
05:03 AM 53.6°F12.0°C 47.6°F8.7°C 80% 4.7 mph NNE7.6 kmh NNE 6.1 mph9.8 kmh 30.58 in1035.6 mb 0.00 in0.0 mm 0.00 in0.0 mm 0.00 in0.0 mm
05:02 AM 53.6°F12.0°C 47.6°F8.7°C 80% 4.8 mph NNE7.7 kmh NNE 7.9 mph12.7 kmh 30.58 in1035.6 mb 0.00 in0.0 mm 0.00 in0.0 mm 0.00 in0.0 mm
05:01 AM 53.6°F12.0°C 47.6°F8.7°C 80% 5.0 mph N8.0 kmh N 7.9 mph12.7 kmh 30.58 in1035.6 mb 0.00 in0.0 mm 0.00 in0.0 mm 0.00 in0.0 mm
05:00 AM 53.6°F12.0°C 47.6°F8.7°C 80% 4.9 mph N7.9 kmh N 7.9 mph12.7 kmh 30.57 in1035.2 mb 0.00 in0.0 mm 0.00 in0.0 mm 0.00 in0.0 mm
04:59 AM 53.6°F12.0°C 47.6°F8.7°C 80% 5.0 mph N8.0 kmh N 7.9 mph12.7 kmh 30.57 in1035.2 mb 0.00 in0.0 mm 0.00 in0.0 mm 0.00 in0.0 mm
04:58 AM 53.6°F12.0°C 47.6°F8.7°C 80% 5.1 mph N8.2 kmh N 7.9 mph12.7 kmh 30.57 in1035.2 mb 0.00 in0.0 mm 0.00 in0.0 mm 0.00 in0.0 mm
04:57 AM 53.6°F12.0°C 47.9°F8.8°C 81% 5.1 mph N8.2 kmh N 7.9 mph12.7 kmh 30.57 in1035.2 mb 0.00 in0.0 mm 0.00 in0.0 mm 0.00 in0.0 mm
04:56 AM 53.6°F12.0°C 47.9°F8.8°C 81% 5.0 mph N8.0 kmh N 7.9 mph12.7 kmh 30.57 in1035.2 mb 0.00 in0.0 mm 0.00 in0.0 mm 0.00 in0.0 mm
04:55 AM 53.6°F12.0°C 47.9°F8.8°C 81% 5.0 mph N8.0 kmh N 7.9 mph12.7 kmh 30.57 in1035.2 mb 0.00 in0.0 mm 0.00 in0.0 mm 0.00 in0.0 mm
04:54 AM 53.6°F12.0°C 47.9°F8.8°C 81% 5.1 mph N8.2 kmh N 7.9 mph12.7 kmh 30.57 in1035.2 mb 0.00 in0.0 mm 0.00 in0.0 mm 0.00 in0.0 mm
04:53 AM 53.6°F12.0°C 47.9°F8.8°C 81% 5.0 mph N8.0 kmh N 7.9 mph12.7 kmh 30.57 in1035.2 mb 0.00 in0.0 mm 0.00 in0.0 mm 0.00 in0.0 mm
04:52 AM 53.6°F12.0°C 47.9°F8.8°C 81% 5.0 mph N8.0 kmh N 7.9 mph12.7 kmh 30.57 in1035.2 mb 0.00 in0.0 mm 0.00 in0.0 mm 0.00 in0.0 mm
04:51 AM 53.6°F12.0°C 47.9°F8.8°C 81% 4.8 mph N7.7 kmh N 6.1 mph9.8 kmh 30.57 in1035.2 mb 0.00 in0.0 mm 0.00 in0.0 mm 0.00 in0.0 mm
04:50 AM 53.6°F12.0°C 47.9°F8.8°C 81% 5.0 mph NNE8.0 kmh NNE 7.0 mph11.3 kmh 30.57 in1035.2 mb 0.00 in0.0 mm 0.00 in0.0 mm 0.00 in0.0 mm
04:49 AM 53.6°F12.0°C 47.9°F8.8°C 81% 5.0 mph NNE8.0 kmh NNE 7.0 mph11.3 kmh 30.57 in1035.2 mb 0.00 in0.0 mm 0.00 in0.0 mm 0.00 in0.0 mm
04:48 AM 53.6°F12.0°C 47.9°F8.8°C 81% 4.9 mph NNE7.9 kmh NNE 7.0 mph11.3 kmh 30.57 in1035.2 mb 0.00 in0.0 mm 0.00 in0.0 mm 0.00 in0.0 mm
04:47 AM 53.6°F12.0°C 47.9°F8.8°C 81% 4.8 mph NNE7.7 kmh NNE 7.0 mph11.3 kmh 30.57 in1035.2 mb 0.00 in0.0 mm 0.00 in0.0 mm 0.00 in0.0 mm
04:46 AM 53.6°F12.0°C 47.9°F8.8°C 81% 4.9 mph NNE7.9 kmh NNE 7.0 mph11.3 kmh 30.58 in1035.6 mb 0.00 in0.0 mm 0.00 in0.0 mm 0.00 in0.0 mm
04:45 AM 53.4°F11.9°C 48.1°F8.9°C 82% 5.0 mph NNE8.0 kmh NNE 7.0 mph11.3 kmh 30.57 in1035.2 mb 0.00 in0.0 mm 0.00 in0.0 mm 0.00 in0.0 mm
04:44 AM 53.4°F11.9°C 48.1°F8.9°C 82% 4.8 mph N7.7 kmh N 7.0 mph11.3 kmh 30.57 in1035.2 mb 0.00 in0.0 mm 0.00 in0.0 mm 0.00 in0.0 mm
04:43 AM 53.4°F11.9°C 48.1°F8.9°C 82% 4.8 mph N7.7 kmh N 7.0 mph11.3 kmh 30.57 in1035.2 mb 0.00 in0.0 mm 0.00 in0.0 mm 0.00 in0.0 mm
04:42 AM 53.4°F11.9°C 48.1°F8.9°C 82% 4.7 mph N7.6 kmh N 7.0 mph11.3 kmh 30.57 in1035.2 mb 0.00 in0.0 mm 0.00 in0.0 mm 0.00 in0.0 mm
04:41 AM 53.4°F11.9°C 48.1°F8.9°C 82% 4.7 mph N7.6 kmh N 7.0 mph11.3 kmh 30.58 in1035.6 mb 0.00 in0.0 mm 0.00 in0.0 mm 0.00 in0.0 mm
04:40 AM 53.6°F12.0°C 47.9°F8.8°C 81% 4.5 mph N7.2 kmh N 7.0 mph11.3 kmh 30.57 in1035.2 mb 0.00 in0.0 mm 0.00 in0.0 mm 0.00 in0.0 mm
04:39 AM 53.6°F12.0°C 47.9°F8.8°C 81% 4.4 mph N7.1 kmh N 7.0 mph11.3 kmh 30.57 in1035.2 mb 0.00 in0.0 mm 0.00 in0.0 mm 0.00 in0.0 mm
04:38 AM 53.6°F12.0°C 47.9°F8.8°C 81% 4.5 mph N7.2 kmh N 7.0 mph11.3 kmh 30.58 in1035.6 mb 0.00 in0.0 mm 0.00 in0.0 mm 0.00 in0.0 mm
04:37 AM 53.6°F12.0°C 47.9°F8.8°C 81% 4.5 mph N7.2 kmh N 7.0 mph11.3 kmh 30.57 in1035.2 mb 0.00 in0.0 mm 0.00 in0.0 mm 0.00 in0.0 mm
04:36 AM 53.6°F12.0°C 47.9°F8.8°C 81% 4.4 mph N7.1 kmh N 7.0 mph11.3 kmh 30.57 in1035.2 mb 0.00 in0.0 mm 0.00 in0.0 mm 0.00 in0.0 mm
04:35 AM 53.6°F12.0°C 47.9°F8.8°C 81% 4.2 mph N6.8 kmh N 5.2 mph8.4 kmh 30.58 in1035.6 mb 0.00 in0.0 mm 0.00 in0.0 mm 0.00 in0.0 mm
04:34 AM 53.6°F12.0°C 47.9°F8.8°C 81% 4.3 mph N6.9 kmh N 5.2 mph8.4 kmh 30.58 in1035.6 mb 0.00 in0.0 mm 0.00 in0.0 mm 0.00 in0.0 mm
04:33 AM 53.6°F12.0°C 47.9°F8.8°C 81% 4.1 mph N6.6 kmh N 5.2 mph8.4 kmh 30.58 in1035.6 mb 0.00 in0.0 mm 0.00 in0.0 mm 0.00 in0.0 mm
04:32 AM 53.6°F12.0°C 48.2°F9.0°C 82% 4.1 mph N6.6 kmh N 5.2 mph8.4 kmh 30.57 in1035.2 mb 0.00 in0.0 mm 0.00 in0.0 mm 0.00 in0.0 mm
04:31 AM 53.4°F11.9°C 48.4°F9.1°C 83% 4.2 mph N6.8 kmh N 5.2 mph8.4 kmh 30.57 in1035.2 mb 0.00 in0.0 mm 0.00 in0.0 mm 0.00 in0.0 mm
04:30 AM 53.4°F11.9°C 48.1°F8.9°C 82% 4.3 mph N6.9 kmh N 5.2 mph8.4 kmh 30.57 in1035.2 mb 0.00 in0.0 mm 0.00 in0.0 mm 0.00 in0.0 mm
04:29 AM 53.6°F12.0°C 47.9°F8.8°C 81% 4.4 mph N7.1 kmh N 6.1 mph9.8 kmh 30.58 in1035.6 mb 0.00 in0.0 mm 0.00 in0.0 mm 0.00 in0.0 mm
04:28 AM 53.6°F12.0°C 47.9°F8.8°C 81% 4.6 mph N7.4 kmh N 6.1 mph9.8 kmh 30.57 in1035.2 mb 0.00 in0.0 mm 0.00 in0.0 mm 0.00 in0.0 mm
04:27 AM 53.6°F12.0°C 47.9°F8.8°C 81% 4.5 mph N7.2 kmh N 6.1 mph9.8 kmh 30.57 in1035.2 mb 0.00 in0.0 mm 0.00 in0.0 mm 0.00 in0.0 mm
04:26 AM 53.6°F12.0°C 47.9°F8.8°C 81% 4.5 mph N7.2 kmh N 6.1 mph9.8 kmh 30.56 in1034.9 mb 0.00 in0.0 mm 0.00 in0.0 mm 0.00 in0.0 mm
04:25 AM 53.6°F12.0°C 47.9°F8.8°C 81% 4.5 mph N7.2 kmh N 6.1 mph9.8 kmh 30.57 in1035.2 mb 0.00 in0.0 mm 0.00 in0.0 mm 0.00 in0.0 mm
04:24 AM 53.6°F12.0°C 47.9°F8.8°C 81% 4.6 mph N7.4 kmh N 6.1 mph9.8 kmh 30.57 in1035.2 mb 0.00 in0.0 mm 0.00 in0.0 mm 0.00 in0.0 mm
04:23 AM 53.6°F12.0°C 47.9°F8.8°C 81% 4.7 mph N7.6 kmh N 6.1 mph9.8 kmh 30.58 in1035.6 mb 0.00 in0.0 mm 0.00 in0.0 mm 0.00 in0.0 mm
04:22 AM 53.6°F12.0°C 47.9°F8.8°C 81% 4.6 mph N7.4 kmh N 6.1 mph9.8 kmh 30.57 in1035.2 mb 0.00 in0.0 mm 0.00 in0.0 mm 0.00 in0.0 mm
04:21 AM 53.6°F12.0°C 47.9°F8.8°C 81% 4.4 mph N7.1 kmh N 6.1 mph9.8 kmh 30.58 in1035.6 mb 0.00 in0.0 mm 0.00 in0.0 mm 0.00 in0.0 mm
04:20 AM 53.6°F12.0°C 47.9°F8.8°C 81% 4.4 mph N7.1 kmh N 6.1 mph9.8 kmh 30.57 in1035.2 mb 0.00 in0.0 mm 0.00 in0.0 mm 0.00 in0.0 mm
04:19 AM 53.6°F12.0°C 47.9°F8.8°C 81% 4.5 mph N7.2 kmh N 7.0 mph11.3 kmh 30.57 in1035.2 mb 0.00 in0.0 mm 0.00 in0.0 mm 0.00 in0.0 mm
04:18 AM 53.6°F12.0°C 47.9°F8.8°C 81% 4.4 mph N7.1 kmh N 7.0 mph11.3 kmh 30.57 in1035.2 mb 0.00 in0.0 mm 0.00 in0.0 mm 0.00 in0.0 mm
04:17 AM 53.6°F12.0°C 47.9°F8.8°C 81% 4.6 mph N7.4 kmh N 7.0 mph11.3 kmh 30.57 in1035.2 mb 0.00 in0.0 mm 0.00 in0.0 mm 0.00 in0.0 mm
04:16 AM 53.6°F12.0°C 47.9°F8.8°C 81% 4.8 mph N7.7 kmh N 7.0 mph11.3 kmh 30.57 in1035.2 mb 0.00 in0.0 mm 0.00 in0.0 mm 0.00 in0.0 mm
04:15 AM 53.6°F12.0°C 48.2°F9.0°C 82% 4.9 mph N7.9 kmh N 7.0 mph11.3 kmh 30.57 in1035.2 mb 0.00 in0.0 mm 0.00 in0.0 mm 0.00 in0.0 mm
04:14 AM 53.6°F12.0°C 48.2°F9.0°C 82% 4.7 mph N7.6 kmh N 7.0 mph11.3 kmh 30.57 in1035.2 mb 0.00 in0.0 mm 0.00 in0.0 mm 0.00 in0.0 mm
04:13 AM 53.6°F12.0°C 48.2°F9.0°C 82% 4.6 mph N7.4 kmh N 7.0 mph11.3 kmh 30.56 in1034.9 mb 0.00 in0.0 mm 0.00 in0.0 mm 0.00 in0.0 mm
04:12 AM 53.6°F12.0°C 48.2°F9.0°C 82% 4.7 mph N7.6 kmh N 7.0 mph11.3 kmh 30.57 in1035.2 mb 0.00 in0.0 mm 0.00 in0.0 mm 0.00 in0.0 mm
04:11 AM 53.6°F12.0°C 48.2°F9.0°C 82% 4.9 mph N7.9 kmh N 7.0 mph11.3 kmh 30.58 in1035.6 mb 0.00 in0.0 mm 0.00 in0.0 mm 0.00 in0.0 mm
04:10 AM 53.6°F12.0°C 48.2°F9.0°C 82% 5.0 mph N8.0 kmh N 7.0 mph11.3 kmh 30.57 in1035.2 mb 0.00 in0.0 mm 0.00 in0.0 mm 0.00 in0.0 mm
04:09 AM 53.6°F12.0°C 48.2°F9.0°C 82% 4.9 mph N7.9 kmh N 6.1 mph9.8 kmh 30.57 in1035.2 mb 0.00 in0.0 mm 0.00 in0.0 mm 0.00 in0.0 mm
04:08 AM 53.6°F12.0°C 48.2°F9.0°C 82% 4.9 mph N7.9 kmh N 6.1 mph9.8 kmh 30.57 in1035.2 mb 0.00 in0.0 mm 0.00 in0.0 mm 0.00 in0.0 mm
04:07 AM 53.6°F12.0°C 48.2°F9.0°C 82% 4.7 mph N7.6 kmh N 6.1 mph9.8 kmh 30.57 in1035.2 mb 0.00 in0.0 mm 0.00 in0.0 mm 0.00 in0.0 mm
04:06 AM 53.6°F12.0°C 48.2°F9.0°C 82% 4.4 mph N7.1 kmh N 6.1 mph9.8 kmh 30.57 in1035.2 mb 0.00 in0.0 mm 0.00 in0.0 mm 0.00 in0.0 mm
04:05 AM 53.6°F12.0°C 48.2°F9.0°C 82% 4.3 mph N6.9 kmh N 6.1 mph9.8 kmh 30.57 in1035.2 mb 0.00 in0.0 mm 0.00 in0.0 mm 0.00 in0.0 mm
04:04 AM 53.6°F12.0°C 48.2°F9.0°C 82% 4.3 mph N6.9 kmh N 6.1 mph9.8 kmh 30.57 in1035.2 mb 0.00 in0.0 mm 0.00 in0.0 mm 0.00 in0.0 mm
04:03 AM 53.6°F12.0°C 48.2°F9.0°C 82% 4.4 mph NNE7.1 kmh NNE 6.1 mph9.8 kmh 30.58 in1035.6 mb 0.00 in0.0 mm 0.00 in0.0 mm 0.00 in0.0 mm
04:02 AM 53.6°F12.0°C 48.2°F9.0°C 82% 4.3 mph N6.9 kmh N 6.1 mph9.8 kmh 30.57 in1035.2 mb 0.00 in0.0 mm 0.00 in0.0 mm 0.00 in0.0 mm
04:01 AM 53.6°F12.0°C 48.2°F9.0°C 82% 4.3 mph N6.9 kmh N 6.1 mph9.8 kmh 30.57 in1035.2 mb 0.00 in0.0 mm 0.00 in0.0 mm 0.00 in0.0 mm
04:00 AM 53.6°F12.0°C 48.2°F9.0°C 82% 4.1 mph N6.6 kmh N 6.1 mph9.8 kmh 30.57 in1035.2 mb 0.00 in0.0 mm 0.00 in0.0 mm 0.00 in0.0 mm
03:59 AM 53.6°F12.0°C 48.2°F9.0°C 82% 3.9 mph N6.3 kmh N 6.1 mph9.8 kmh 30.57 in1035.2 mb 0.00 in0.0 mm 0.00 in0.0 mm 0.00 in0.0 mm
03:58 AM 53.6°F12.0°C 48.2°F9.0°C 82% 3.7 mph N6.0 kmh N 6.1 mph9.8 kmh 30.57 in1035.2 mb 0.00 in0.0 mm 0.00 in0.0 mm 0.00 in0.0 mm
03:57 AM 53.6°F12.0°C 48.2°F9.0°C 82% 3.7 mph N6.0 kmh N 5.2 mph8.4 kmh 30.57 in1035.2 mb 0.00 in0.0 mm 0.00 in0.0 mm 0.00 in0.0 mm
03:56 AM 53.6°F12.0°C 48.2°F9.0°C 82% 3.7 mph N6.0 kmh N 5.2 mph8.4 kmh 30.57 in1035.2 mb 0.00 in0.0 mm 0.00 in0.0 mm 0.00 in0.0 mm
03:55 AM 53.6°F12.0°C 48.2°F9.0°C 82% 3.8 mph N6.1 kmh N 5.2 mph8.4 kmh 30.57 in1035.2 mb 0.00 in0.0 mm 0.00 in0.0 mm 0.00 in0.0 mm
03:54 AM 53.6°F12.0°C 48.2°F9.0°C 82% 3.9 mph N6.3 kmh N 5.2 mph8.4 kmh 30.57 in1035.2 mb 0.00 in0.0 mm 0.00 in0.0 mm 0.00 in0.0 mm
03:53 AM 53.6°F12.0°C 48.2°F9.0°C 82% 3.8 mph N6.1 kmh N 5.2 mph8.4 kmh 30.57 in1035.2 mb 0.00 in0.0 mm 0.00 in0.0 mm 0.00 in0.0 mm
03:52 AM 53.6°F12.0°C 48.2°F9.0°C 82% 3.6 mph N5.8 kmh N 5.2 mph8.4 kmh 30.57 in1035.2 mb 0.00 in0.0 mm 0.00 in0.0 mm 0.00 in0.0 mm
03:51 AM 53.6°F12.0°C 48.2°F9.0°C 82% 3.6 mph N5.8 kmh N 4.4 mph7.1 kmh 30.57 in1035.2 mb 0.00 in0.0 mm 0.00 in0.0 mm 0.00 in0.0 mm
03:50 AM 53.6°F12.0°C 48.2°F9.0°C 82% 3.7 mph N6.0 kmh N 4.4 mph7.1 kmh 30.57 in1035.2 mb 0.00 in0.0 mm 0.00 in0.0 mm 0.00 in0.0 mm
03:49 AM 53.6°F12.0°C 48.2°F9.0°C 82% 3.8 mph N6.1 kmh N 4.4 mph7.1 kmh 30.58 in1035.6 mb 0.00 in0.0 mm 0.00 in0.0 mm 0.00 in0.0 mm
03:48 AM 53.6°F12.0°C 48.2°F9.0°C 82% 3.8 mph N6.1 kmh N 4.4 mph7.1 kmh 30.57 in1035.2 mb 0.00 in0.0 mm 0.00 in0.0 mm 0.00 in0.0 mm
03:47 AM 53.6°F12.0°C 48.2°F9.0°C 82% 3.8 mph N6.1 kmh N 4.4 mph7.1 kmh 30.58 in1035.6 mb 0.00 in0.0 mm 0.00 in0.0 mm 0.00 in0.0 mm
03:46 AM 53.6°F12.0°C 48.2°F9.0°C 82% 4.0 mph N6.4 kmh N 5.2 mph8.4 kmh 30.57 in1035.2 mb 0.00 in0.0 mm 0.00 in0.0 mm 0.00 in0.0 mm
03:45 AM 53.6°F12.0°C 48.2°F9.0°C 82% 4.0 mph NNE6.4 kmh NNE 5.2 mph8.4 kmh 30.57 in1035.2 mb 0.00 in0.0 mm 0.00 in0.0 mm 0.00 in0.0 mm
03:44 AM 53.6°F12.0°C 48.2°F9.0°C 82% 4.0 mph NNE6.4 kmh NNE 5.2 mph8.4 kmh 30.58 in1035.6 mb 0.00 in0.0 mm 0.00 in0.0 mm 0.00 in0.0 mm
03:43 AM 53.8°F12.1°C 48.4°F9.1°C 82% 4.0 mph NNE6.4 kmh NNE 5.2 mph8.4 kmh 30.57 in1035.2 mb 0.00 in0.0 mm 0.00 in0.0 mm 0.00 in0.0 mm
03:42 AM 53.8°F12.1°C 48.4°F9.1°C 82% 4.2 mph NNE6.8 kmh NNE 5.2 mph8.4 kmh 30.57 in1035.2 mb 0.00 in0.0 mm 0.00 in0.0 mm 0.00 in0.0 mm
03:41 AM 53.8°F12.1°C 48.4°F9.1°C 82% 4.2 mph NNE6.8 kmh NNE 5.2 mph8.4 kmh 30.57 in1035.2 mb 0.00 in0.0 mm 0.00 in0.0 mm 0.00 in0.0 mm
03:40 AM 53.8°F12.1°C 48.4°F9.1°C 82% 4.2 mph NNE6.8 kmh NNE 5.2 mph8.4 kmh 30.57 in1035.2 mb 0.00 in0.0 mm 0.00 in0.0 mm 0.00 in0.0 mm
03:39 AM 53.8°F12.1°C 48.4°F9.1°C 82% 4.3 mph NNE6.9 kmh NNE 5.2 mph8.4 kmh 30.58 in1035.6 mb 0.00 in0.0 mm 0.00 in0.0 mm 0.00 in0.0 mm
03:38 AM 53.8°F12.1°C 48.4°F9.1°C 82% 4.6 mph NNE7.4 kmh NNE 7.9 mph12.7 kmh 30.58 in1035.6 mb 0.00 in0.0 mm 0.00 in0.0 mm 0.00 in0.0 mm
03:37 AM 53.8°F12.1°C 48.4°F9.1°C 82% 4.8 mph N7.7 kmh N 7.9 mph12.7 kmh 30.57 in1035.2 mb 0.00 in0.0 mm 0.00 in0.0 mm 0.00 in0.0 mm
03:36 AM 53.8°F12.1°C 48.4°F9.1°C 82% 4.7 mph N7.6 kmh N 7.9 mph12.7 kmh 30.57 in1035.2 mb 0.00 in0.0 mm 0.00 in0.0 mm 0.00 in0.0 mm
03:35 AM 53.8°F12.1°C 48.4°F9.1°C 82% 4.6 mph NNE7.4 kmh NNE 7.9 mph12.7 kmh 30.57 in1035.2 mb 0.00 in0.0 mm 0.00 in0.0 mm 0.00 in0.0 mm
03:34 AM 53.8°F12.1°C 48.4°F9.1°C 82% 4.6 mph N7.4 kmh N 7.9 mph12.7 kmh 30.57 in1035.2 mb 0.00 in0.0 mm 0.00 in0.0 mm 0.00 in0.0 mm
03:33 AM 53.8°F12.1°C 48.4°F9.1°C 82% 4.7 mph N7.6 kmh N 7.9 mph12.7 kmh 30.57 in1035.2 mb 0.00 in0.0 mm 0.00 in0.0 mm 0.00 in0.0 mm
03:32 AM 53.8°F12.1°C 48.4°F9.1°C 82% 4.7 mph N7.6 kmh N 7.9 mph12.7 kmh 30.57 in1035.2 mb 0.00 in0.0 mm 0.00 in0.0 mm 0.00 in0.0 mm
03:31 AM 53.8°F12.1°C 48.4°F9.1°C 82% 4.5 mph N7.2 kmh N 7.9 mph12.7 kmh 30.57 in1035.2 mb 0.00 in0.0 mm 0.00 in0.0 mm 0.00 in0.0 mm
03:30 AM 53.8°F12.1°C 48.4°F9.1°C 82% 4.6 mph N7.4 kmh N 7.9 mph12.7 kmh 30.57 in1035.2 mb 0.00 in0.0 mm 0.00 in0.0 mm 0.00 in0.0 mm
03:29 AM 53.8°F12.1°C 48.4°F9.1°C 82% 4.6 mph N7.4 kmh N 7.9 mph12.7 kmh 30.57 in1035.2 mb 0.00 in0.0 mm 0.00 in0.0 mm 0.00 in0.0 mm
03:28 AM 53.8°F12.1°C 48.4°F9.1°C 82% 4.6 mph N7.4 kmh N 7.9 mph12.7 kmh 30.57 in1035.2 mb 0.00 in0.0 mm 0.00 in0.0 mm 0.00 in0.0 mm
03:27 AM 53.8°F12.1°C 48.4°F9.1°C 82% 4.5 mph N7.2 kmh N 7.9 mph12.7 kmh 30.57 in1035.2 mb 0.00 in0.0 mm 0.00 in0.0 mm 0.00 in0.0 mm
03:26 AM 53.8°F12.1°C 48.4°F9.1°C 82% 4.5 mph N7.2 kmh N 7.9 mph12.7 kmh 30.56 in1034.9 mb 0.00 in0.0 mm 0.00 in0.0 mm 0.00 in0.0 mm
03:25 AM 53.8°F12.1°C 48.4°F9.1°C 82% 4.5 mph N7.2 kmh N 7.9 mph12.7 kmh 30.57 in1035.2 mb 0.00 in0.0 mm 0.00 in0.0 mm 0.00 in0.0 mm
03:24 AM 53.8°F12.1°C 48.4°F9.1°C 82% 4.5 mph N7.2 kmh N 7.9 mph12.7 kmh 30.56 in1034.9 mb 0.00 in0.0 mm 0.00 in0.0 mm 0.00 in0.0 mm
03:23 AM 53.8°F12.1°C 48.4°F9.1°C 82% 4.7 mph N7.6 kmh N 7.9 mph12.7 kmh 30.56 in1034.9 mb 0.00 in0.0 mm 0.00 in0.0 mm 0.00 in0.0 mm
03:22 AM 53.8°F12.1°C 48.4°F9.1°C 82% 4.9 mph N7.9 kmh N 7.9 mph12.7 kmh 30.56 in1034.9 mb 0.00 in0.0 mm 0.00 in0.0 mm 0.00 in0.0 mm
03:21 AM 53.8°F12.1°C 48.4°F9.1°C 82% 5.0 mph N8.0 kmh N 7.9 mph12.7 kmh 30.57 in1035.2 mb 0.00 in0.0 mm 0.00 in0.0 mm 0.00 in0.0 mm
03:20 AM 53.8°F12.1°C 48.4°F9.1°C 82% 5.0 mph N8.0 kmh N 7.9 mph12.7 kmh 30.57 in1035.2 mb 0.00 in0.0 mm 0.00 in0.0 mm 0.00 in0.0 mm
03:19 AM 53.8°F12.1°C 48.4°F9.1°C 82% 4.9 mph N7.9 kmh N 7.9 mph12.7 kmh 30.56 in1034.9 mb 0.00 in0.0 mm 0.00 in0.0 mm 0.00 in0.0 mm
03:18 AM 53.8°F12.1°C 48.4°F9.1°C 82% 4.8 mph N7.7 kmh N 7.0 mph11.3 kmh 30.56 in1034.9 mb 0.00 in0.0 mm 0.00 in0.0 mm 0.00 in0.0 mm
03:17 AM 53.8°F12.1°C 48.4°F9.1°C 82% 4.7 mph N7.6 kmh N 7.0 mph11.3 kmh 30.56 in1034.9 mb 0.00 in0.0 mm 0.00 in0.0 mm 0.00 in0.0 mm
03:16 AM 53.8°F12.1°C 48.4°F9.1°C 82% 4.7 mph N7.6 kmh N 7.0 mph11.3 kmh 30.56 in1034.9 mb 0.00 in0.0 mm 0.00 in0.0 mm 0.00 in0.0 mm
03:15 AM 53.8°F12.1°C 48.4°F9.1°C 82% 4.9 mph N7.9 kmh N 7.0 mph11.3 kmh 30.56 in1034.9 mb 0.00 in0.0 mm 0.00 in0.0 mm 0.00 in0.0 mm
03:14 AM 53.8°F12.1°C 48.1°F8.9°C 81% 4.9 mph N7.9 kmh N 7.0 mph11.3 kmh 30.56 in1034.9 mb 0.00 in0.0 mm 0.00 in0.0 mm 0.00 in0.0 mm
03:13 AM 53.8°F12.1°C 48.1°F8.9°C 81% 4.8 mph N7.7 kmh N 7.0 mph11.3 kmh 30.56 in1034.9 mb 0.00 in0.0 mm 0.00 in0.0 mm 0.00 in0.0 mm
03:12 AM 53.8°F12.1°C 48.4°F9.1°C 82% 4.6 mph N7.4 kmh N 6.1 mph9.8 kmh 30.57 in1035.2 mb 0.00 in0.0 mm 0.00 in0.0 mm 0.00 in0.0 mm
03:11 AM 53.8°F12.1°C 48.4°F9.1°C 82% 4.5 mph N7.2 kmh N 6.1 mph9.8 kmh 30.57 in1035.2 mb 0.00 in0.0 mm 0.00 in0.0 mm 0.00 in0.0 mm
03:10 AM 53.8°F12.1°C 48.4°F9.1°C 82% 4.5 mph N7.2 kmh N 6.1 mph9.8 kmh 30.57 in1035.2 mb 0.00 in0.0 mm 0.00 in0.0 mm 0.00 in0.0 mm
03:09 AM 53.8°F12.1°C 48.4°F9.1°C 82% 4.5 mph N7.2 kmh N 6.1 mph9.8 kmh 30.57 in1035.2 mb 0.00 in0.0 mm 0.00 in0.0 mm 0.00 in0.0 mm
03:08 AM 53.8°F12.1°C 48.4°F9.1°C 82% 4.4 mph N7.1 kmh N 5.2 mph8.4 kmh 30.58 in1035.6 mb 0.00 in0.0 mm 0.00 in0.0 mm 0.00 in0.0 mm
03:07 AM 53.8°F12.1°C 48.4°F9.1°C 82% 4.4 mph N7.1 kmh N 5.2 mph8.4 kmh 30.57 in1035.2 mb 0.00 in0.0 mm 0.00 in0.0 mm 0.00 in0.0 mm
03:06 AM 53.8°F12.1°C 48.4°F9.1°C 82% 4.4 mph N7.1 kmh N 5.2 mph8.4 kmh 30.57 in1035.2 mb 0.00 in0.0 mm 0.00 in0.0 mm 0.00 in0.0 mm
03:05 AM 53.8°F12.1°C 48.4°F9.1°C 82% 4.4 mph N7.1 kmh N 5.2 mph8.4 kmh 30.57 in1035.2 mb 0.00 in0.0 mm 0.00 in0.0 mm 0.00 in0.0 mm
03:04 AM 53.8°F12.1°C 48.4°F9.1°C 82% 4.3 mph N6.9 kmh N 5.2 mph8.4 kmh 30.57 in1035.2 mb 0.00 in0.0 mm 0.00 in0.0 mm 0.00 in0.0 mm
03:03 AM 53.8°F12.1°C 48.4°F9.1°C 82% 4.3 mph N6.9 kmh N 5.2 mph8.4 kmh 30.58 in1035.6 mb 0.00 in0.0 mm 0.00 in0.0 mm 0.00 in0.0 mm
03:02 AM 53.8°F12.1°C 48.4°F9.1°C 82% 4.2 mph N6.8 kmh N 5.2 mph8.4 kmh 30.57 in1035.2 mb 0.00 in0.0 mm 0.00 in0.0 mm 0.00 in0.0 mm
03:01 AM 53.8°F12.1°C 48.4°F9.1°C 82% 4.2 mph N6.8 kmh N 5.2 mph8.4 kmh 30.57 in1035.2 mb 0.00 in0.0 mm 0.00 in0.0 mm 0.00 in0.0 mm
03:00 AM 53.8°F12.1°C 48.4°F9.1°C 82% 4.5 mph NNE7.2 kmh NNE 6.1 mph9.8 kmh 30.57 in1035.2 mb 0.00 in0.0 mm 0.00 in0.0 mm 0.00 in0.0 mm
02:59 AM 53.8°F12.1°C 48.4°F9.1°C 82% 4.4 mph NNE7.1 kmh NNE 6.1 mph9.8 kmh 30.57 in1035.2 mb 0.00 in0.0 mm 0.00 in0.0 mm 0.00 in0.0 mm
02:58 AM 53.8°F12.1°C 48.4°F9.1°C 82% 4.5 mph NNE7.2 kmh NNE 6.1 mph9.8 kmh 30.57 in1035.2 mb 0.00 in0.0 mm 0.00 in0.0 mm 0.00 in0.0 mm
02:57 AM 53.8°F12.1°C 48.1°F8.9°C 81% 4.6 mph NNE7.4 kmh NNE 6.1 mph9.8 kmh 30.57 in1035.2 mb 0.00 in0.0 mm 0.00 in0.0 mm 0.00 in0.0 mm
02:56 AM 53.8°F12.1°C 48.1°F8.9°C 81% 4.6 mph NNE7.4 kmh NNE 6.1 mph9.8 kmh 30.57 in1035.2 mb 0.00 in0.0 mm 0.00 in0.0 mm 0.00 in0.0 mm
02:55 AM 53.8°F12.1°C 48.1°F8.9°C 81% 4.6 mph NNE7.4 kmh NNE 6.1 mph9.8 kmh 30.57 in1035.2 mb 0.00 in0.0 mm 0.00 in0.0 mm 0.00 in0.0 mm
02:54 AM 54.0°F12.2°C 48.3°F9.1°C 81% 4.7 mph NNE7.6 kmh NNE 6.1 mph9.8 kmh 30.57 in1035.2 mb 0.00 in0.0 mm 0.00 in0.0 mm 0.00 in0.0 mm
02:53 AM 54.0°F12.2°C 48.3°F9.1°C 81% 4.7 mph NNE7.6 kmh NNE 6.1 mph9.8 kmh 30.57 in1035.2 mb 0.00 in0.0 mm 0.00 in0.0 mm 0.00 in0.0 mm
02:52 AM 54.0°F12.2°C 48.3°F9.1°C 81% 4.6 mph NNE7.4 kmh NNE 6.1 mph9.8 kmh 30.57 in1035.2 mb 0.00 in0.0 mm 0.00 in0.0 mm 0.00 in0.0 mm
02:51 AM 54.0°F12.2°C 48.3°F9.1°C 81% 4.6 mph NNE7.4 kmh NNE 6.1 mph9.8 kmh 30.57 in1035.2 mb 0.00 in0.0 mm 0.00 in0.0 mm 0.00 in0.0 mm
02:50 AM 54.0°F12.2°C 48.3°F9.1°C 81% 4.5 mph NNE7.2 kmh NNE 6.1 mph9.8 kmh 30.58 in1035.6 mb 0.00 in0.0 mm 0.00 in0.0 mm 0.00 in0.0 mm
02:49 AM 54.0°F12.2°C 48.3°F9.1°C 81% 4.3 mph N6.9 kmh N 6.1 mph9.8 kmh 30.57 in1035.2 mb 0.00 in0.0 mm 0.00 in0.0 mm 0.00 in0.0 mm
02:48 AM 54.0°F12.2°C 48.3°F9.1°C 81% 4.1 mph NNE6.6 kmh NNE 5.2 mph8.4 kmh 30.58 in1035.6 mb 0.00 in0.0 mm 0.00 in0.0 mm 0.00 in0.0 mm
02:47 AM 54.0°F12.2°C 48.3°F9.1°C 81% 4.0 mph NNE6.4 kmh NNE 5.2 mph8.4 kmh 30.58 in1035.6 mb 0.00 in0.0 mm 0.00 in0.0 mm 0.00 in0.0 mm
02:46 AM 54.0°F12.2°C 48.3°F9.1°C 81% 4.1 mph NNE6.6 kmh NNE 6.1 mph9.8 kmh 30.58 in1035.6 mb 0.00 in0.0 mm 0.00 in0.0 mm 0.00 in0.0 mm
02:45 AM 54.0°F12.2°C 48.6°F9.2°C 82% 4.1 mph NNE6.6 kmh NNE 6.1 mph9.8 kmh 30.58 in1035.6 mb 0.00 in0.0 mm 0.00 in0.0 mm 0.00 in0.0 mm
02:44 AM 54.0°F12.2°C 48.3°F9.1°C 81% 4.1 mph NNE6.6 kmh NNE 6.1 mph9.8 kmh 30.57 in1035.2 mb 0.00 in0.0 mm 0.00 in0.0 mm 0.00 in0.0 mm
02:43 AM 54.0°F12.2°C 48.3°F9.1°C 81% 4.0 mph N6.4 kmh N 6.1 mph9.8 kmh 30.58 in1035.6 mb 0.00 in0.0 mm 0.00 in0.0 mm 0.00 in0.0 mm
02:42 AM 54.0°F12.2°C 48.3°F9.1°C 81% 4.2 mph N6.8 kmh N 6.1 mph9.8 kmh 30.58 in1035.6 mb 0.00 in0.0 mm 0.00 in0.0 mm 0.00 in0.0 mm
02:41 AM 54.0°F12.2°C 48.3°F9.1°C 81% 4.0 mph NNE6.4 kmh NNE 6.1 mph9.8 kmh 30.58 in1035.6 mb 0.00 in0.0 mm 0.00 in0.0 mm 0.00 in0.0 mm
02:40 AM 54.0°F12.2°C 48.3°F9.1°C 81% 3.9 mph NNE6.3 kmh NNE 6.1 mph9.8 kmh 30.58 in1035.6 mb 0.00 in0.0 mm 0.00 in0.0 mm 0.00 in0.0 mm
02:39 AM 54.0°F12.2°C 48.3°F9.1°C 81% 4.0 mph NNE6.4 kmh NNE 6.1 mph9.8 kmh 30.58 in1035.6 mb 0.00 in0.0 mm 0.00 in0.0 mm 0.00 in0.0 mm
02:38 AM 54.0°F12.2°C 48.3°F9.1°C 81% 4.0 mph NNE6.4 kmh NNE 6.1 mph9.8 kmh 30.57 in1035.2 mb 0.00 in0.0 mm 0.00 in0.0 mm 0.00 in0.0 mm
02:37 AM 54.0°F12.2°C 48.3°F9.1°C 81% 4.1 mph N6.6 kmh N 6.1 mph9.8 kmh 30.58 in1035.6 mb 0.00 in0.0 mm 0.00 in0.0 mm 0.00 in0.0 mm
02:36 AM 53.8°F12.1°C 48.1°F8.9°C 81% 3.9 mph N6.3 kmh N 5.2 mph8.4 kmh 30.57 in1035.2 mb 0.00 in0.0 mm 0.00 in0.0 mm 0.00 in0.0 mm
02:35 AM 53.8°F12.1°C 48.4°F9.1°C 82% 3.8 mph N6.1 kmh N 5.2 mph8.4 kmh 30.58 in1035.6 mb 0.00 in0.0 mm 0.00 in0.0 mm 0.00 in0.0 mm
02:34 AM 54.0°F12.2°C 48.3°F9.1°C 81% 3.8 mph NNE6.1 kmh NNE 5.2 mph8.4 kmh 30.57 in1035.2 mb 0.00 in0.0 mm 0.00 in0.0 mm 0.00 in0.0 mm
02:33 AM 54.0°F12.2°C 48.3°F9.1°C 81% 3.8 mph NNE6.1 kmh NNE 5.2 mph8.4 kmh 30.58 in1035.6 mb 0.00 in0.0 mm 0.00 in0.0 mm 0.00 in0.0 mm
02:32 AM 54.0°F12.2°C 48.3°F9.1°C 81% 3.8 mph NNE6.1 kmh NNE 5.2 mph8.4 kmh 30.58 in1035.6 mb 0.00 in0.0 mm 0.00 in0.0 mm 0.00 in0.0 mm
02:31 AM 53.8°F12.1°C 48.1°F8.9°C 81% 3.8 mph NNE6.1 kmh NNE 5.2 mph8.4 kmh 30.58 in1035.6 mb 0.00 in0.0 mm 0.00 in0.0 mm 0.00 in0.0 mm
02:30 AM 54.0°F12.2°C 48.3°F9.1°C 81% 3.8 mph N6.1 kmh N 5.2 mph8.4 kmh 30.57 in1035.2 mb 0.00 in0.0 mm 0.00 in0.0 mm 0.00 in0.0 mm
02:29 AM 54.0°F12.2°C 48.3°F9.1°C 81% 3.9 mph N6.3 kmh N 6.1 mph9.8 kmh 30.58 in1035.6 mb 0.00 in0.0 mm 0.00 in0.0 mm 0.00 in0.0 mm
02:28 AM 54.0°F12.2°C 48.3°F9.1°C 81% 4.2 mph N6.8 kmh N 6.1 mph9.8 kmh 30.57 in1035.2 mb 0.00 in0.0 mm 0.00 in0.0 mm 0.00 in0.0 mm
02:27 AM 54.0°F12.2°C 48.3°F9.1°C 81% 4.2 mph NNE6.8 kmh NNE 6.1 mph9.8 kmh 30.57 in1035.2 mb 0.00 in0.0 mm 0.00 in0.0 mm 0.00 in0.0 mm
02:26 AM 54.0°F12.2°C 48.3°F9.1°C 81% 4.2 mph N6.8 kmh N 6.1 mph9.8 kmh 30.57 in1035.2 mb 0.00 in0.0 mm 0.00 in0.0 mm 0.00 in0.0 mm
02:25 AM 54.0°F12.2°C 48.3°F9.1°C 81% 4.2 mph N6.8 kmh N 6.1 mph9.8 kmh 30.58 in1035.6 mb 0.00 in0.0 mm 0.00 in0.0 mm 0.00 in0.0 mm
02:24 AM 54.0°F12.2°C 48.3°F9.1°C 81% 4.1 mph N6.6 kmh N 6.1 mph9.8 kmh 30.58 in1035.6 mb 0.00 in0.0 mm 0.00 in0.0 mm 0.00 in0.0 mm
02:23 AM 54.0°F12.2°C 48.3°F9.1°C 81% 4.0 mph N6.4 kmh N 6.1 mph9.8 kmh 30.58 in1035.6 mb 0.00 in0.0 mm 0.00 in0.0 mm 0.00 in0.0 mm
02:22 AM 54.0°F12.2°C 48.3°F9.1°C 81% 3.9 mph N6.3 kmh N 6.1 mph9.8 kmh 30.58 in1035.6 mb 0.00 in0.0 mm 0.00 in0.0 mm 0.00 in0.0 mm
02:21 AM 54.0°F12.2°C 48.3°F9.1°C 81% 3.9 mph N6.3 kmh N 6.1 mph9.8 kmh 30.58 in1035.6 mb 0.00 in0.0 mm 0.00 in0.0 mm 0.00 in0.0 mm
02:20 AM 54.0°F12.2°C 48.3°F9.1°C 81% 4.0 mph N6.4 kmh N 6.1 mph9.8 kmh 30.58 in1035.6 mb 0.00 in0.0 mm 0.00 in0.0 mm 0.00 in0.0 mm
02:19 AM 54.0°F12.2°C 48.3°F9.1°C 81% 4.0 mph N6.4 kmh N 6.1 mph9.8 kmh 30.58 in1035.6 mb 0.00 in0.0 mm 0.00 in0.0 mm 0.00 in0.0 mm
02:18 AM 54.0°F12.2°C 48.3°F9.1°C 81% 3.8 mph N6.1 kmh N 6.1 mph9.8 kmh 30.58 in1035.6 mb 0.00 in0.0 mm 0.00 in0.0 mm 0.00 in0.0 mm
02:17 AM 53.8°F12.1°C 48.1°F8.9°C 81% 3.6 mph N5.8 kmh N 4.4 mph7.1 kmh 30.59 in1035.9 mb 0.00 in0.0 mm 0.00 in0.0 mm 0.00 in0.0 mm
02:16 AM 54.0°F12.2°C 48.3°F9.1°C 81% 3.5 mph N5.6 kmh N 4.4 mph7.1 kmh 30.58 in1035.6 mb 0.00 in0.0 mm 0.00 in0.0 mm 0.00 in0.0 mm
02:15 AM 53.8°F12.1°C 48.1°F8.9°C 81% 3.5 mph N5.6 kmh N 4.4 mph7.1 kmh 30.58 in1035.6 mb 0.00 in0.0 mm 0.00 in0.0 mm 0.00 in0.0 mm
02:14 AM 54.0°F12.2°C 48.3°F9.1°C 81% 3.4 mph NNE5.5 kmh NNE 4.4 mph7.1 kmh 30.58 in1035.6 mb 0.00 in0.0 mm 0.00 in0.0 mm 0.00 in0.0 mm
02:13 AM 54.0°F12.2°C 48.3°F9.1°C 81% 3.3 mph N5.3 kmh N 4.4 mph7.1 kmh 30.58 in1035.6 mb 0.00 in0.0 mm 0.00 in0.0 mm 0.00 in0.0 mm
02:12 AM 53.8°F12.1°C 48.1°F8.9°C 81% 3.3 mph N5.3 kmh N 4.4 mph7.1 kmh 30.57 in1035.2 mb 0.00 in0.0 mm 0.00 in0.0 mm 0.00 in0.0 mm
02:11 AM 54.0°F12.2°C 48.3°F9.1°C 81% 3.2 mph N5.1 kmh N 4.4 mph7.1 kmh 30.58 in1035.6 mb 0.00 in0.0 mm 0.00 in0.0 mm 0.00 in0.0 mm
02:10 AM 54.0°F12.2°C 48.3°F9.1°C 81% 3.1 mph N5.0 kmh N 4.4 mph7.1 kmh 30.57 in1035.2 mb 0.00 in0.0 mm 0.00 in0.0 mm 0.00 in0.0 mm
02:09 AM 53.8°F12.1°C 48.1°F8.9°C 81% 2.9 mph N4.7 kmh N 4.4 mph7.1 kmh 30.58 in1035.6 mb 0.00 in0.0 mm 0.00 in0.0 mm 0.00 in0.0 mm
02:08 AM 53.8°F12.1°C 48.1°F8.9°C 81% 2.9 mph N4.7 kmh N 4.4 mph7.1 kmh 30.57 in1035.2 mb 0.00 in0.0 mm 0.00 in0.0 mm 0.00 in0.0 mm
02:07 AM 53.8°F12.1°C 48.1°F8.9°C 81% 2.9 mph N4.7 kmh N 4.4 mph7.1 kmh 30.57 in1035.2 mb 0.00 in0.0 mm 0.00 in0.0 mm 0.00 in0.0 mm
02:06 AM 53.8°F12.1°C 48.1°F8.9°C 81% 3.1 mph N5.0 kmh N 5.2 mph8.4 kmh 30.57 in1035.2 mb 0.00 in0.0 mm 0.00 in0.0 mm 0.00 in0.0 mm
02:05 AM 53.8°F12.1°C 48.1°F8.9°C 81% 3.4 mph NNE5.5 kmh NNE 6.1 mph9.8 kmh 30.58 in1035.6 mb 0.00 in0.0 mm 0.00 in0.0 mm 0.00 in0.0 mm
02:04 AM 53.8°F12.1°C 48.1°F8.9°C 81% 4.0 mph NE6.4 kmh NE 10.5 mph16.9 kmh 30.58 in1035.6 mb 0.00 in0.0 mm 0.00 in0.0 mm 0.00 in0.0 mm
02:03 AM 53.8°F12.1°C 48.1°F8.9°C 81% 4.6 mph NNE7.4 kmh NNE 10.5 mph16.9 kmh 30.57 in1035.2 mb 0.00 in0.0 mm 0.00 in0.0 mm 0.00 in0.0 mm
02:02 AM 53.8°F12.1°C 48.1°F8.9°C 81% 4.7 mph NE7.6 kmh NE 10.5 mph16.9 kmh 30.57 in1035.2 mb 0.00 in0.0 mm 0.00 in0.0 mm 0.00 in0.0 mm
02:01 AM 53.8°F12.1°C 48.1°F8.9°C 81% 5.0 mph NNE8.0 kmh NNE 10.5 mph16.9 kmh 30.57 in1035.2 mb 0.00 in0.0 mm 0.00 in0.0 mm 0.00 in0.0 mm
02:00 AM 53.8°F12.1°C 48.1°F8.9°C 81% 5.2 mph NNE8.4 kmh NNE 10.5 mph16.9 kmh 30.57 in1035.2 mb 0.00 in0.0 mm 0.00 in0.0 mm 0.00 in0.0 mm
01:59 AM 53.8°F12.1°C 48.1°F8.9°C 81% 5.3 mph NNE8.5 kmh NNE 10.5 mph16.9 kmh 30.57 in1035.2 mb 0.00 in0.0 mm 0.00 in0.0 mm 0.00 in0.0 mm
01:58 AM 53.8°F12.1°C 48.1°F8.9°C 81% 5.2 mph NNE8.4 kmh NNE 10.5 mph16.9 kmh 30.57 in1035.2 mb 0.00 in0.0 mm 0.00 in0.0 mm 0.00 in0.0 mm
01:57 AM 54.0°F12.2°C 48.3°F9.1°C 81% 5.2 mph NNE8.4 kmh NNE 10.5 mph16.9 kmh 30.57 in1035.2 mb 0.00 in0.0 mm 0.00 in0.0 mm 0.00 in0.0 mm
01:56 AM 54.0°F12.2°C 48.3°F9.1°C 81% 5.1 mph NNE8.2 kmh NNE 10.5 mph16.9 kmh 30.57 in1035.2 mb 0.00 in0.0 mm 0.00 in0.0 mm 0.00 in0.0 mm
01:55 AM 53.8°F12.1°C 48.1°F8.9°C 81% 5.0 mph NNE8.0 kmh NNE 10.5 mph16.9 kmh 30.58 in1035.6 mb 0.00 in0.0 mm 0.00 in0.0 mm 0.00 in0.0 mm
01:54 AM 53.8°F12.1°C 48.1°F8.9°C 81% 4.7 mph N7.6 kmh N 10.5 mph16.9 kmh 30.57 in1035.2 mb 0.00 in0.0 mm 0.00 in0.0 mm 0.00 in0.0 mm
01:53 AM 53.8°F12.1°C 48.1°F8.9°C 81% 4.4 mph NNE7.1 kmh NNE 6.1 mph9.8 kmh 30.57 in1035.2 mb 0.00 in0.0 mm 0.00 in0.0 mm 0.00 in0.0 mm
01:52 AM 53.8°F12.1°C 48.1°F8.9°C 81% 4.5 mph N7.2 kmh N 7.0 mph11.3 kmh 30.57 in1035.2 mb 0.00 in0.0 mm 0.00 in0.0 mm 0.00 in0.0 mm
01:51 AM 53.8°F12.1°C 48.1°F8.9°C 81% 4.5 mph N7.2 kmh N 7.0 mph11.3 kmh 30.57 in1035.2 mb 0.00 in0.0 mm 0.00 in0.0 mm 0.00 in0.0 mm
01:50 AM 53.8°F12.1°C 48.1°F8.9°C 81% 4.4 mph N7.1 kmh N 7.0 mph11.3 kmh 30.57 in1035.2 mb 0.00 in0.0 mm 0.00 in0.0 mm 0.00 in0.0 mm
01:49 AM 53.8°F12.1°C 48.1°F8.9°C 81% 4.5 mph N7.2 kmh N 7.0 mph11.3 kmh 30.57 in1035.2 mb 0.00 in0.0 mm 0.00 in0.0 mm 0.00 in0.0 mm
01:48 AM 53.8°F12.1°C 48.1°F8.9°C 81% 4.6 mph N7.4 kmh N 7.0 mph11.3 kmh 30.58 in1035.6 mb 0.00 in0.0 mm 0.00 in0.0 mm 0.00 in0.0 mm
01:47 AM 53.8°F12.1°C 48.1°F8.9°C 81% 4.7 mph N7.6 kmh N 7.0 mph11.3 kmh 30.56 in1034.9 mb 0.00 in0.0 mm 0.00 in0.0 mm 0.00 in0.0 mm
01:46 AM 53.8°F12.1°C 48.1°F8.9°C 81% 4.7 mph N7.6 kmh N 7.0 mph11.3 kmh 30.57 in1035.2 mb 0.00 in0.0 mm 0.00 in0.0 mm 0.00 in0.0 mm
01:45 AM 53.8°F12.1°C 48.1°F8.9°C 81% 4.7 mph N7.6 kmh N 7.0 mph11.3 kmh 30.57 in1035.2 mb 0.00 in0.0 mm 0.00 in0.0 mm 0.00 in0.0 mm
01:44 AM 53.8°F12.1°C 48.1°F8.9°C 81% 4.7 mph N7.6 kmh N 7.0 mph11.3 kmh 30.57 in1035.2 mb 0.00 in0.0 mm 0.00 in0.0 mm 0.00 in0.0 mm
01:43 AM 53.8°F12.1°C 48.1°F8.9°C 81% 4.7 mph N7.6 kmh N 7.0 mph11.3 kmh 30.57 in1035.2 mb 0.00 in0.0 mm 0.00 in0.0 mm 0.00 in0.0 mm
01:42 AM 53.8°F12.1°C 48.1°F8.9°C 81% 4.5 mph N7.2 kmh N 7.0 mph11.3 kmh 30.56 in1034.9 mb 0.00 in0.0 mm 0.00 in0.0 mm 0.00 in0.0 mm
01:41 AM 53.8°F12.1°C 48.1°F8.9°C 81% 4.4 mph N7.1 kmh N 5.2 mph8.4 kmh 30.57 in1035.2 mb 0.00 in0.0 mm 0.00 in0.0 mm 0.00 in0.0 mm
01:40 AM 53.8°F12.1°C 48.1°F8.9°C 81% 4.4 mph N7.1 kmh N 5.2 mph8.4 kmh 30.57 in1035.2 mb 0.00 in0.0 mm 0.00 in0.0 mm 0.00 in0.0 mm
01:39 AM 53.8°F12.1°C 48.1°F8.9°C 81% 4.3 mph N6.9 kmh N 5.2 mph8.4 kmh 30.56 in1034.9 mb 0.00 in0.0 mm 0.00 in0.0 mm 0.00 in0.0 mm
01:38 AM 53.8°F12.1°C 48.1°F8.9°C 81% 4.3 mph N6.9 kmh N 5.2 mph8.4 kmh 30.56 in1034.9 mb 0.00 in0.0 mm 0.00 in0.0 mm 0.00 in0.0 mm
01:37 AM 53.8°F12.1°C 48.1°F8.9°C 81% 4.2 mph N6.8 kmh N 5.2 mph8.4 kmh 30.56 in1034.9 mb 0.00 in0.0 mm 0.00 in0.0 mm 0.00 in0.0 mm
01:36 AM 53.8°F12.1°C 48.1°F8.9°C 81% 4.3 mph N6.9 kmh N 7.0 mph11.3 kmh 30.56 in1034.9 mb 0.00 in0.0 mm 0.00 in0.0 mm 0.00 in0.0 mm
01:35 AM 53.8°F12.1°C 48.1°F8.9°C 81% 4.5 mph N7.2 kmh N 7.0 mph11.3 kmh 30.57 in1035.2 mb 0.00 in0.0 mm 0.00 in0.0 mm 0.00 in0.0 mm
01:34 AM 53.8°F12.1°C 48.1°F8.9°C 81% 4.7 mph N7.6 kmh N 7.0 mph11.3 kmh 30.56 in1034.9 mb 0.00 in0.0 mm 0.00 in0.0 mm 0.00 in0.0 mm
01:33 AM 53.8°F12.1°C 48.1°F8.9°C 81% 4.6 mph N7.4 kmh N 7.0 mph11.3 kmh 30.56 in1034.9 mb 0.00 in0.0 mm 0.00 in0.0 mm 0.00 in0.0 mm
01:32 AM 53.8°F12.1°C 48.1°F8.9°C 81% 4.6 mph N7.4 kmh N 7.0 mph11.3 kmh 30.55 in1034.5 mb 0.00 in0.0 mm 0.00 in0.0 mm 0.00 in0.0 mm
01:31 AM 53.8°F12.1°C 47.8°F8.8°C 80% 4.7 mph N7.6 kmh N 7.0 mph11.3 kmh 30.55 in1034.5 mb 0.00 in0.0 mm 0.00 in0.0 mm 0.00 in0.0 mm
01:30 AM 53.8°F12.1°C 47.8°F8.8°C 80% 4.7 mph N7.6 kmh N 7.0 mph11.3 kmh 30.55 in1034.5 mb 0.00 in0.0 mm 0.00 in0.0 mm 0.00 in0.0 mm
01:29 AM 53.8°F12.1°C 47.8°F8.8°C 80% 4.8 mph N7.7 kmh N 7.0 mph11.3 kmh 30.55 in1034.5 mb 0.00 in0.0 mm 0.00 in0.0 mm 0.00 in0.0 mm
01:28 AM 53.8°F12.1°C 47.8°F8.8°C 80% 4.9 mph N7.9 kmh N 7.0 mph11.3 kmh 30.55 in1034.5 mb 0.00 in0.0 mm 0.00 in0.0 mm 0.00 in0.0 mm
01:27 AM 53.8°F12.1°C 48.1°F8.9°C 81% 4.9 mph N7.9 kmh N 7.0 mph11.3 kmh 30.55 in1034.5 mb 0.00 in0.0 mm 0.00 in0.0 mm 0.00 in0.0 mm
01:26 AM 53.8°F12.1°C 48.1°F8.9°C 81% 4.8 mph N7.7 kmh N 7.0 mph11.3 kmh 30.56 in1034.9 mb 0.00 in0.0 mm 0.00 in0.0 mm 0.00 in0.0 mm
01:25 AM 53.8°F12.1°C 47.8°F8.8°C 80% 4.5 mph N7.2 kmh N 6.1 mph9.8 kmh 30.55 in1034.5 mb 0.00 in0.0 mm 0.00 in0.0 mm 0.00 in0.0 mm
01:24 AM 53.8°F12.1°C 47.8°F8.8°C 80% 4.4 mph N7.1 kmh N 4.4 mph7.1 kmh 30.55 in1034.5 mb 0.00 in0.0 mm 0.00 in0.0 mm 0.00 in0.0 mm
01:23 AM 53.6°F12.0°C 47.6°F8.7°C 80% 4.3 mph N6.9 kmh N 4.4 mph7.1 kmh 30.56 in1034.9 mb 0.00 in0.0 mm 0.00 in0.0 mm 0.00 in0.0 mm
01:22 AM 53.6°F12.0°C 47.6°F8.7°C 80% 4.4 mph N7.1 kmh N 5.2 mph8.4 kmh 30.55 in1034.5 mb 0.00 in0.0 mm 0.00 in0.0 mm 0.00 in0.0 mm
01:21 AM 53.6°F12.0°C 47.6°F8.7°C 80% 4.3 mph N6.9 kmh N 5.2 mph8.4 kmh 30.55 in1034.5 mb 0.00 in0.0 mm 0.00 in0.0 mm 0.00 in0.0 mm
01:20 AM 53.6°F12.0°C 47.6°F8.7°C 80% 4.2 mph N6.8 kmh N 5.2 mph8.4 kmh 30.55 in1034.5 mb 0.00 in0.0 mm 0.00 in0.0 mm 0.00 in0.0 mm
01:19 AM 53.6°F12.0°C 47.6°F8.7°C 80% 4.2 mph N6.8 kmh N 5.2 mph8.4 kmh 30.55 in1034.5 mb 0.00 in0.0 mm 0.00 in0.0 mm 0.00 in0.0 mm
01:18 AM 53.6°F12.0°C 47.6°F8.7°C 80% 4.2 mph N6.8 kmh N 5.2 mph8.4 kmh 30.55 in1034.5 mb 0.00 in0.0 mm 0.00 in0.0 mm 0.00 in0.0 mm
01:17 AM 53.6°F12.0°C 47.6°F8.7°C 80% 4.3 mph N6.9 kmh N 5.2 mph8.4 kmh 30.55 in1034.5 mb 0.00 in0.0 mm 0.00 in0.0 mm 0.00 in0.0 mm
01:16 AM 53.6°F12.0°C 47.6°F8.7°C 80% 4.3 mph N6.9 kmh N 5.2 mph8.4 kmh 30.55 in1034.5 mb 0.00 in0.0 mm 0.00 in0.0 mm 0.00 in0.0 mm
01:15 AM 53.6°F12.0°C 47.6°F8.7°C 80% 4.4 mph N7.1 kmh N 5.2 mph8.4 kmh 30.55 in1034.5 mb 0.00 in0.0 mm 0.00 in0.0 mm 0.00 in0.0 mm
01:14 AM 53.6°F12.0°C 47.6°F8.7°C 80% 4.5 mph N7.2 kmh N 5.2 mph8.4 kmh 30.55 in1034.5 mb 0.00 in0.0 mm 0.00 in0.0 mm 0.00 in0.0 mm
01:13 AM 53.6°F12.0°C 47.6°F8.7°C 80% 4.5 mph N7.2 kmh N 5.2 mph8.4 kmh 30.55 in1034.5 mb 0.00 in0.0 mm 0.00 in0.0 mm 0.00 in0.0 mm
01:12 AM 53.6°F12.0°C 47.6°F8.7°C 80% 4.4 mph N7.1 kmh N 6.1 mph9.8 kmh 30.56 in1034.9 mb 0.00 in0.0 mm 0.00 in0.0 mm 0.00 in0.0 mm
01:11 AM 53.8°F12.1°C 47.8°F8.8°C 80% 4.6 mph N7.4 kmh N 6.1 mph9.8 kmh 30.56 in1034.9 mb 0.00 in0.0 mm 0.00 in0.0 mm 0.00 in0.0 mm
01:10 AM 53.8°F12.1°C 47.8°F8.8°C 80% 4.8 mph NNE7.7 kmh NNE 6.1 mph9.8 kmh 30.55 in1034.5 mb 0.00 in0.0 mm 0.00 in0.0 mm 0.00 in0.0 mm
01:09 AM 53.6°F12.0°C 47.6°F8.7°C 80% 4.7 mph NNE7.6 kmh NNE 6.1 mph9.8 kmh 30.55 in1034.5 mb 0.00 in0.0 mm 0.00 in0.0 mm 0.00 in0.0 mm
01:08 AM 53.8°F12.1°C 47.8°F8.8°C 80% 5.0 mph NNE8.0 kmh NNE 7.9 mph12.7 kmh 30.55 in1034.5 mb 0.00 in0.0 mm 0.00 in0.0 mm 0.00 in0.0 mm
01:07 AM 53.8°F12.1°C 47.8°F8.8°C 80% 4.9 mph NNE7.9 kmh NNE 7.9 mph12.7 kmh 30.55 in1034.5 mb 0.00 in0.0 mm 0.00 in0.0 mm 0.00 in0.0 mm
01:06 AM 53.6°F12.0°C 47.6°F8.7°C 80% 4.8 mph NNE7.7 kmh NNE 7.9 mph12.7 kmh 30.56 in1034.9 mb 0.00 in0.0 mm 0.00 in0.0 mm 0.00 in0.0 mm
01:05 AM 53.6°F12.0°C 47.6°F8.7°C 80% 4.8 mph N7.7 kmh N 7.9 mph12.7 kmh 30.56 in1034.9 mb 0.00 in0.0 mm 0.00 in0.0 mm 0.00 in0.0 mm
01:04 AM 53.6°F12.0°C 47.6°F8.7°C 80% 4.9 mph N7.9 kmh N 7.9 mph12.7 kmh 30.55 in1034.5 mb 0.00 in0.0 mm 0.00 in0.0 mm 0.00 in0.0 mm
01:03 AM 53.6°F12.0°C 47.6°F8.7°C 80% 4.9 mph N7.9 kmh N 7.9 mph12.7 kmh 30.55 in1034.5 mb 0.00 in0.0 mm 0.00 in0.0 mm 0.00 in0.0 mm
01:02 AM 53.6°F12.0°C 47.6°F8.7°C 80% 4.7 mph N7.6 kmh N 7.9 mph12.7 kmh 30.55 in1034.5 mb 0.00 in0.0 mm 0.00 in0.0 mm 0.00 in0.0 mm
01:01 AM 53.8°F12.1°C 47.8°F8.8°C 80% 4.7 mph N7.6 kmh N 7.9 mph12.7 kmh 30.55 in1034.5 mb 0.00 in0.0 mm 0.00 in0.0 mm 0.00 in0.0 mm
01:00 AM 53.8°F12.1°C 47.8°F8.8°C 80% 4.8 mph N7.7 kmh N 7.9 mph12.7 kmh 30.55 in1034.5 mb 0.00 in0.0 mm 0.00 in0.0 mm 0.00 in0.0 mm
12:59 AM 53.6°F12.0°C 47.6°F8.7°C 80% 4.9 mph N7.9 kmh N 7.9 mph12.7 kmh 30.56 in1034.9 mb 0.00 in0.0 mm 0.00 in0.0 mm 0.00 in0.0 mm
12:58 AM 53.6°F12.0°C 47.6°F8.7°C 80% 4.6 mph N7.4 kmh N 7.9 mph12.7 kmh 30.55 in1034.5 mb 0.00 in0.0 mm 0.00 in0.0 mm 0.00 in0.0 mm
12:57 AM 53.6°F12.0°C 47.6°F8.7°C 80% 4.5 mph N7.2 kmh N 7.0 mph11.3 kmh 30.55 in1034.5 mb 0.00 in0.0 mm 0.00 in0.0 mm 0.00 in0.0 mm
12:56 AM 53.6°F12.0°C 47.6°F8.7°C 80% 4.4 mph N7.1 kmh N 7.0 mph11.3 kmh 30.55 in1034.5 mb 0.00 in0.0 mm 0.00 in0.0 mm 0.00 in0.0 mm
12:55 AM 53.6°F12.0°C 47.6°F8.7°C 80% 4.2 mph N6.8 kmh N 7.0 mph11.3 kmh 30.56 in1034.9 mb 0.00 in0.0 mm 0.00 in0.0 mm 0.00 in0.0 mm
12:54 AM 53.6°F12.0°C 47.6°F8.7°C 80% 4.1 mph N6.6 kmh N 7.0 mph11.3 kmh 30.55 in1034.5 mb 0.00 in0.0 mm 0.00 in0.0 mm 0.00 in0.0 mm
12:53 AM 53.6°F12.0°C 47.6°F8.7°C 80% 4.1 mph N6.6 kmh N 7.0 mph11.3 kmh 30.55 in1034.5 mb 0.00 in0.0 mm 0.00 in0.0 mm 0.00 in0.0 mm
12:52 AM 53.6°F12.0°C 47.6°F8.7°C 80% 4.3 mph N6.9 kmh N 7.0 mph11.3 kmh 30.56 in1034.9 mb 0.00 in0.0 mm 0.00 in0.0 mm 0.00 in0.0 mm
12:51 AM 53.6°F12.0°C 47.6°F8.7°C 80% 4.2 mph N6.8 kmh N 7.0 mph11.3 kmh 30.55 in1034.5 mb 0.00 in0.0 mm 0.00 in0.0 mm 0.00 in0.0 mm
12:50 AM 53.6°F12.0°C 47.6°F8.7°C 80% 4.1 mph N6.6 kmh N 5.2 mph8.4 kmh 30.55 in1034.5 mb 0.00 in0.0 mm 0.00 in0.0 mm 0.00 in0.0 mm
12:49 AM 53.4°F11.9°C 47.7°F8.7°C 81% 4.3 mph N6.9 kmh N 8.7 mph14.0 kmh 30.56 in1034.9 mb 0.00 in0.0 mm 0.00 in0.0 mm 0.00 in0.0 mm
12:48 AM 53.6°F12.0°C 47.6°F8.7°C 80% 4.4 mph N7.1 kmh N 8.7 mph14.0 kmh 30.55 in1034.5 mb 0.00 in0.0 mm 0.00 in0.0 mm 0.00 in0.0 mm
12:47 AM 53.4°F11.9°C 47.7°F8.7°C 81% 4.3 mph N6.9 kmh N 8.7 mph14.0 kmh 30.55 in1034.5 mb 0.00 in0.0 mm 0.00 in0.0 mm 0.00 in0.0 mm
12:46 AM 53.4°F11.9°C 47.7°F8.7°C 81% 4.5 mph N7.2 kmh N 8.7 mph14.0 kmh 30.55 in1034.5 mb 0.00 in0.0 mm 0.00 in0.0 mm 0.00 in0.0 mm
12:45 AM 53.4°F11.9°C 47.7°F8.7°C 81% 4.7 mph N7.6 kmh N 8.7 mph14.0 kmh 30.55 in1034.5 mb 0.00 in0.0 mm 0.00 in0.0 mm 0.00 in0.0 mm
12:44 AM 53.6°F12.0°C 47.6°F8.7°C 80% 4.4 mph N7.1 kmh N 8.7 mph14.0 kmh 30.55 in1034.5 mb 0.00 in0.0 mm 0.00 in0.0 mm 0.00 in0.0 mm
12:43 AM 53.4°F11.9°C 47.7°F8.7°C 81% 4.5 mph N7.2 kmh N 8.7 mph14.0 kmh 30.55 in1034.5 mb 0.00 in0.0 mm 0.00 in0.0 mm 0.00 in0.0 mm
12:42 AM 53.4°F11.9°C 47.7°F8.7°C 81% 4.5 mph N7.2 kmh N 8.7 mph14.0 kmh 30.55 in1034.5 mb 0.00 in0.0 mm 0.00 in0.0 mm 0.00 in0.0 mm
12:41 AM 53.4°F11.9°C 47.7°F8.7°C 81% 4.5 mph N7.2 kmh N 8.7 mph14.0 kmh 30.55 in1034.5 mb 0.00 in0.0 mm 0.00 in0.0 mm 0.00 in0.0 mm
12:40 AM 53.4°F11.9°C 47.7°F8.7°C 81% 4.3 mph N6.9 kmh N 8.7 mph14.0 kmh 30.55 in1034.5 mb 0.00 in0.0 mm 0.00 in0.0 mm 0.00 in0.0 mm
12:39 AM 53.4°F11.9°C 47.7°F8.7°C 81% 3.9 mph N6.3 kmh N 5.2 mph8.4 kmh 30.56 in1034.9 mb 0.00 in0.0 mm 0.00 in0.0 mm 0.00 in0.0 mm
12:38 AM 53.4°F11.9°C 47.7°F8.7°C 81% 3.9 mph N6.3 kmh N 5.2 mph8.4 kmh 30.55 in1034.5 mb 0.00 in0.0 mm 0.00 in0.0 mm 0.00 in0.0 mm
12:37 AM 53.4°F11.9°C 47.7°F8.7°C 81% 3.9 mph N6.3 kmh N 5.2 mph8.4 kmh 30.56 in1034.9 mb 0.00 in0.0 mm 0.00 in0.0 mm 0.00 in0.0 mm
12:36 AM 53.4°F11.9°C 47.7°F8.7°C 81% 3.9 mph N6.3 kmh N 5.2 mph8.4 kmh 30.56 in1034.9 mb 0.00 in0.0 mm 0.00 in0.0 mm 0.00 in0.0 mm
12:35 AM 53.4°F11.9°C 47.7°F8.7°C 81% 3.7 mph N6.0 kmh N 5.2 mph8.4 kmh 30.55 in1034.5 mb 0.00 in0.0 mm 0.00 in0.0 mm 0.00 in0.0 mm
12:34 AM 53.4°F11.9°C 47.7°F8.7°C 81% 4.0 mph N6.4 kmh N 5.2 mph8.4 kmh 30.56 in1034.9 mb 0.00 in0.0 mm 0.00 in0.0 mm 0.00 in0.0 mm
12:33 AM 53.6°F12.0°C 47.6°F8.7°C 80% 4.1 mph N6.6 kmh N 7.0 mph11.3 kmh 30.56 in1034.9 mb 0.00 in0.0 mm 0.00 in0.0 mm 0.00 in0.0 mm
12:32 AM 53.6°F12.0°C 47.6°F8.7°C 80% 4.1 mph N6.6 kmh N 7.0 mph11.3 kmh 30.55 in1034.5 mb 0.00 in0.0 mm 0.00 in0.0 mm 0.00 in0.0 mm
12:31 AM 53.6°F12.0°C 47.6°F8.7°C 80% 4.4 mph N7.1 kmh N 7.0 mph11.3 kmh 30.55 in1034.5 mb 0.00 in0.0 mm 0.00 in0.0 mm 0.00 in0.0 mm
12:30 AM 53.6°F12.0°C 47.2°F8.4°C 79% 4.7 mph N7.6 kmh N 7.0 mph11.3 kmh 30.55 in1034.5 mb 0.00 in0.0 mm 0.00 in0.0 mm 0.00 in0.0 mm
12:29 AM 53.6°F12.0°C 47.2°F8.4°C 79% 4.9 mph N7.9 kmh N 7.0 mph11.3 kmh 30.56 in1034.9 mb 0.00 in0.0 mm 0.00 in0.0 mm 0.00 in0.0 mm
12:28 AM 53.6°F12.0°C 47.2°F8.4°C 79% 4.9 mph N7.9 kmh N 7.0 mph11.3 kmh 30.56 in1034.9 mb 0.00 in0.0 mm 0.00 in0.0 mm 0.00 in0.0 mm
12:27 AM 53.6°F12.0°C 47.6°F8.7°C 80% 5.0 mph NNE8.0 kmh NNE 7.0 mph11.3 kmh 30.56 in1034.9 mb 0.00 in0.0 mm 0.00 in0.0 mm 0.00 in0.0 mm
12:26 AM 53.6°F12.0°C 47.6°F8.7°C 80% 5.2 mph NNE8.4 kmh NNE 7.0 mph11.3 kmh 30.55 in1034.5 mb 0.00 in0.0 mm 0.00 in0.0 mm 0.00 in0.0 mm
12:25 AM 53.6°F12.0°C 47.2°F8.4°C 79% 5.4 mph N8.7 kmh N 7.0 mph11.3 kmh 30.55 in1034.5 mb 0.00 in0.0 mm 0.00 in0.0 mm 0.00 in0.0 mm
12:24 AM 53.6°F12.0°C 47.2°F8.4°C 79% 5.4 mph N8.7 kmh N 7.0 mph11.3 kmh 30.56 in1034.9 mb 0.00 in0.0 mm 0.00 in0.0 mm 0.00 in0.0 mm
12:23 AM 53.6°F12.0°C 47.2°F8.4°C 79% 5.3 mph N8.5 kmh N 7.0 mph11.3 kmh 30.56 in1034.9 mb 0.00 in0.0 mm 0.00 in0.0 mm 0.00 in0.0 mm
12:22 AM 53.6°F12.0°C 47.2°F8.4°C 79% 5.4 mph NNE8.7 kmh NNE 7.0 mph11.3 kmh 30.55 in1034.5 mb 0.00 in0.0 mm 0.00 in0.0 mm 0.00 in0.0 mm
12:21 AM 53.6°F12.0°C 47.2°F8.4°C 79% 5.1 mph NNE8.2 kmh NNE 7.0 mph11.3 kmh 30.56 in1034.9 mb 0.00 in0.0 mm 0.00 in0.0 mm 0.00 in0.0 mm
12:20 AM 53.6°F12.0°C 47.2°F8.4°C 79% 4.9 mph NNE7.9 kmh NNE 7.0 mph11.3 kmh 30.56 in1034.9 mb 0.00 in0.0 mm 0.00 in0.0 mm 0.00 in0.0 mm
12:19 AM 53.6°F12.0°C 47.2°F8.4°C 79% 4.8 mph NNE7.7 kmh NNE 7.0 mph11.3 kmh 30.56 in1034.9 mb 0.00 in0.0 mm 0.00 in0.0 mm 0.00 in0.0 mm
12:18 AM 53.6°F12.0°C 47.6°F8.7°C 80% 4.6 mph N7.4 kmh N 7.0 mph11.3 kmh 30.56 in1034.9 mb 0.00 in0.0 mm 0.00 in0.0 mm 0.00 in0.0 mm
12:17 AM 53.6°F12.0°C 47.6°F8.7°C 80% 4.3 mph N6.9 kmh N 7.0 mph11.3 kmh 30.56 in1034.9 mb 0.00 in0.0 mm 0.00 in0.0 mm 0.00 in0.0 mm
12:16 AM 53.6°F12.0°C 47.6°F8.7°C 80% 4.2 mph N6.8 kmh N 7.0 mph11.3 kmh 30.56 in1034.9 mb 0.00 in0.0 mm 0.00 in0.0 mm 0.00 in0.0 mm
12:15 AM 53.4°F11.9°C 47.4°F8.6°C 80% 4.1 mph NNE6.6 kmh NNE 7.0 mph11.3 kmh 30.55 in1034.5 mb 0.00 in0.0 mm 0.00 in0.0 mm 0.00 in0.0 mm
12:14 AM 53.4°F11.9°C 47.7°F8.7°C 81% 4.1 mph NNE6.6 kmh NNE 6.1 mph9.8 kmh 30.56 in1034.9 mb 0.00 in0.0 mm 0.00 in0.0 mm 0.00 in0.0 mm
12:13 AM 53.6°F12.0°C 47.6°F8.7°C 80% 4.3 mph NNE6.9 kmh NNE 7.0 mph11.3 kmh 30.56 in1034.9 mb 0.00 in0.0 mm 0.00 in0.0 mm 0.00 in0.0 mm
12:12 AM 53.6°F12.0°C 47.6°F8.7°C 80% 4.3 mph NNE6.9 kmh NNE 7.0 mph11.3 kmh 30.56 in1034.9 mb 0.00 in0.0 mm 0.00 in0.0 mm 0.00 in0.0 mm
12:11 AM 53.6°F12.0°C 47.6°F8.7°C 80% 4.4 mph N7.1 kmh N 7.0 mph11.3 kmh 30.55 in1034.5 mb 0.00 in0.0 mm 0.00 in0.0 mm 0.00 in0.0 mm
12:10 AM 53.6°F12.0°C 47.2°F8.4°C 79% 4.4 mph NNE7.1 kmh NNE 7.0 mph11.3 kmh 30.55 in1034.5 mb 0.00 in0.0 mm 0.00 in0.0 mm 0.00 in0.0 mm
12:09 AM 53.6°F12.0°C 47.2°F8.4°C 79% 4.2 mph NNE6.8 kmh NNE 7.0 mph11.3 kmh 30.55 in1034.5 mb 0.00 in0.0 mm 0.00 in0.0 mm 0.00 in0.0 mm
12:08 AM 53.6°F12.0°C 47.2°F8.4°C 79% 4.2 mph NNE6.8 kmh NNE 7.0 mph11.3 kmh 30.55 in1034.5 mb 0.00 in0.0 mm 0.00 in0.0 mm 0.00 in0.0 mm
12:07 AM 53.6°F12.0°C 47.2°F8.4°C 79% 4.5 mph N7.2 kmh N 7.0 mph11.3 kmh 30.55 in1034.5 mb 0.00 in0.0 mm 0.00 in0.0 mm 0.00 in0.0 mm
12:06 AM 53.6°F12.0°C 47.2°F8.4°C 79% 4.5 mph N7.2 kmh N 7.0 mph11.3 kmh 30.55 in1034.5 mb 0.00 in0.0 mm 0.00 in0.0 mm 0.00 in0.0 mm
12:05 AM 53.6°F12.0°C 47.2°F8.4°C 79% 4.4 mph N7.1 kmh N 7.0 mph11.3 kmh 30.55 in1034.5 mb 0.00 in0.0 mm 0.00 in0.0 mm 0.00 in0.0 mm
12:04 AM 53.6°F12.0°C 47.2°F8.4°C 79% 4.2 mph N6.8 kmh N 7.0 mph11.3 kmh 30.55 in1034.5 mb 0.00 in0.0 mm 0.00 in0.0 mm 0.00 in0.0 mm
12:03 AM 53.6°F12.0°C 47.2°F8.4°C 79% 4.0 mph N6.4 kmh N 6.1 mph9.8 kmh 30.55 in1034.5 mb 0.00 in0.0 mm 0.00 in0.0 mm 0.00 in0.0 mm
12:02 AM 53.6°F12.0°C 47.2°F8.4°C 79% 3.9 mph N6.3 kmh N 5.2 mph8.4 kmh 30.55 in1034.5 mb 0.00 in0.0 mm 0.00 in0.0 mm 0.00 in0.0 mm
12:01 AM 53.6°F12.0°C 47.2°F8.4°C 79% 3.7 mph N6.0 kmh N 5.2 mph8.4 kmh 30.55 in1034.5 mb 0.00 in0.0 mm 0.00 in0.0 mm 0.00 in0.0 mm
12:00 AM 53.6°F12.0°C 47.2°F8.4°C 79% 3.7 mph N6.0 kmh N 5.2 mph8.4 kmh 30.55 in1034.5 mb 0.00 in0.0 mm 0.00 in0.0 mm 0.00 in0.0 mm